Flight Briefing for CPX955

Departure Arrival
Sacramento International Airport (KSMF)
Click to view FAA NOTAMS
Travis Air Force Base (KSUU)
Click to view FAA NOTAMS
Departure Time Arrival Time
N/A N/A
Aircraft Distance
B757-200SF 30nm
Departure METAR Arrival METAR
KSMF 252253Z 26009KT 10SM -RA SCT048 BKN060 OVC095 14/11 A3005 RMK AO2 RAE03B46 SLP176 P0000 T01440111 KSUU 252342Z AUTO 24013KT 3SM BR OVC041 13/12 A3005 RMK AO2 RAE42 SLP183 $
Suggested Route





View recent IFR Routes data
Notes
EMPTY | NON-REVENUE REPOSITIONING LEG | VFR DEPARTURE RCMD IF WX PERMITS

Charts and Procedures

Charts for KSMF
No chart available
Charts for KSUU
No chart available

Windy.com Weather Map